• Join FlightAware (Why Join?)
  • Login
  • US Flag 
05:50AM EDT


 

Airport Tracker/Info


-or-


 

Live Flight TrackerFlight Track Log ✈ UAL4476 ✈ 22-Apr-2013 ✈ KCLE - KBOS

Flight Track Log - Related Links

Times and Time Zones

All times are in EDT time to prevent confusion due to time zone crossing. See the UAL4476 flight status page for this flight to view local times or setup timezone preferences in your user account.

Time Position Orientation Groundspeed Altitude Reporting Facility
EDT Latitude Longitude Course Direction KTS MPH feet Rate Location/Type
08:55AM 41.4236 -81.8347 24° Northeast 175 201 1,800  Level Cleveland Center
08:56AM 41.4636 -81.8106 24° Northeast 230 265 2,700 1,800 Climbing Cleveland Center
08:57AM 41.5142 -81.7617 36° Northeast 268 308 4,900 2,400 Climbing Cleveland Center
08:58AM 41.5422 -81.6650 69° East 247 284 7,600 2,460 Climbing Cleveland Center
08:59AM 41.5681 -81.5711 70° East 255 293 9,900 1,740 Climbing Cleveland Center
09:00AM 41.5939 -81.4689 71° East 273 314 11,100 1,140 Climbing Cleveland Center
09:01AM 41.6239 -81.3525 71° East 309 356 12,200 1,200 Climbing Cleveland Center
09:02AM 41.6581 -81.2278 70° East 338 389 13,600 1,380 Climbing Cleveland Center
09:03AM 41.6900 -81.1031 71° East 348 400 15,000 1,380 Climbing Cleveland Center
09:04AM 41.7239 -80.9753 70° East 348 400 16,400 1,260 Climbing Cleveland Center
09:05AM 41.7533 -80.8642 70° East 348 400 17,600 1,020 Climbing Cleveland Center
09:06AM 41.7847 -80.7364 72° East 348 400 18,500 1,140 Climbing Cleveland Center
09:07AM 41.8183 -80.6083 71° East 353 406 19,900 1,380 Climbing Cleveland Center
09:08AM 41.8517 -80.4772 71° East 368 423 21,300 1,320 Climbing Cleveland Center
09:09AM 41.8847 -80.3461 71° East 368 423 22,600 1,140 Climbing Cleveland Center
09:10AM 41.9197 -80.2064 71° East 376 433 23,600 960 Climbing Cleveland Center
09:11AM 41.9589 -80.0556 71° East 384 442 24,600 900 Climbing Cleveland Center
09:12AM 41.9914 -79.9294 71° East 390 449 25,500 900 Climbing Cleveland Center
09:13AM 42.0281 -79.7836 71° East 395 455 26,500 720 Climbing Cleveland Center
09:14AM 42.0625 -79.6406 72° East 395 455 27,000 240 Climbing Cleveland Center
09:15AM 42.1008 -79.4889 71° East 406 467 27,000  Level Cleveland Center
09:16AM 42.1386 -79.3342 72° East 417 480 27,000 180 Level Cleveland Center
09:17AM 42.1764 -79.1739 72° East 430 495 27,400 900 Climbing Cleveland Center
09:18AM 42.2036 -79.0192 77° East 435 501 28,900 1,440 Climbing Cleveland Center
09:19AM 42.2244 -78.8644 80° East 427 491 30,300 1,020 Climbing Cleveland Center
09:20AM 42.2431 -78.7153 80° East 410 472 31,000 300 Climbing Cleveland Center
09:21AM 42.2611 -78.5547 81° East 416 479 31,000  Level Cleveland Center
09:22AM 42.2811 -78.3942 80° East 429 494 31,000  Level Cleveland Center
09:23AM 42.3006 -78.2278 81° East 434 499 31,000  Level Cleveland Center
09:24AM 42.3239 -78.0444 80° East 448 516 31,000  Level Cleveland Center
09:25AM 42.3450 -77.8750 80° East 448 516 31,000  Level Cleveland Center
09:26AM 42.3639 -77.7083 81° East 448 516 31,000  Level Cleveland Center
09:27AM 42.3825 -77.5389 81° East 448 516 31,000  Level Cleveland Center
09:28AM 42.4011 -77.3747 81° East 448 516 31,000  Level Cleveland Center
09:30AM 42.4450 -76.9819 81° East 439 505 31,000  Level Boston Center
09:31AM 42.4644 -76.8089 81° East 439 505 31,000  Level Boston Center
09:32AM 42.4811 -76.6439 82° East 439 505 31,000  Level Boston Center
09:33AM 42.4964 -76.5097 81° East 445 512 31,000  Level Boston Center
09:34AM 42.5181 -76.3053 82° East 445 512 31,000  Level Boston Center
09:35AM 42.5342 -76.1372 83° East 445 512 31,000  Level Boston Center
09:36AM 42.5486 -76.0056 81° East 445 512 31,000  Level Boston Center
09:37AM 42.5675 -75.8008 83° East 445 512 31,000  Level Boston Center
09:39AM 42.5741 -75.6351 83° East  Level FlightAware Approximate
09:39AM 42.5997 -75.4639 83° East 445 512 31,000  Level Boston Center
09:40AM 42.6169 -75.2897 82° East 445 512 31,000  Level Boston Center
09:41AM 42.6333 -75.1242 82° East 451 519 31,000  Level Boston Center
09:42AM 42.6478 -74.9553 83° East 451 519 31,000  Level Boston Center
09:43AM 42.6639 -74.7836 83° East 451 519 31,000  Level Boston Center
09:44AM 42.6797 -74.6092 83° East 451 519 31,000  Level Boston Center
09:45AM 42.6892 -74.4400 86° East 456 525 31,000  Level Boston Center
09:47AM 42.6794 -74.2675 94° East 451 519 31,000  Level Boston Center
09:48AM 42.6681 -74.0608 94° East 456 525 31,000  Level Boston Center
09:49AM 42.6581 -73.8856 94° East 461 531 31,000  Level Boston Center
09:50AM 42.6497 -73.6933 93° East 460 529 31,000  Level Boston Center
09:51AM 42.6392 -73.5153 95° East 460 529 31,000  Level Boston Center
09:52AM 42.6303 -73.3403 94° East 465 535 31,000 -240 Level Boston Center
09:53AM 42.6208 -73.1933 95° East 465 535 30,600 -720 Descending Boston Center
09:54AM 42.6117 -73.0014 94° East 465 535 29,600 -1,320 Descending Boston Center
09:55AM 42.5978 -72.8208 96° East 478 550 27,800 -2,460 Descending Boston Center
09:56AM 42.5836 -72.6064 95° East 474 545 24,200 -3,300 Descending Boston Center
09:57AM 42.5733 -72.4400 95° East 458 527 21,200 -2,820 Descending Boston Center
09:58AM 42.5628 -72.2878 95° East 433 498 18,000 -2,700 Descending Boston Center
09:59AM 42.5478 -72.0933 96° East 393 452 15,300 -2,340 Descending Boston Center
10:00AM 42.5369 -71.9667 97° East 381 438 13,400 -1,800 Descending Boston Center
10:01AM 42.5239 -71.8231 97° East 362 417 11,800 -1,500 Descending Boston Center
10:02AM 42.5147 -71.7133 96° East 329 379 10,500 -1,380 Descending Boston Center
10:03AM 42.5058 -71.6036 96° East 286 329 9,100 -1,140 Descending Boston Center
10:03AM 42.5000 -71.5667 102° East 260 299 9,100 -120 Level KA90
10:04AM 42.4833 -71.4667 103° East 260 299 9,000 -60 Descending KA90
10:05AM 42.4833 -71.3833 90° East 263 303 9,000 -180 Level KA90
10:06AM 42.4667 -71.2833 103° East 264 304 8,700 -900 Descending KA90
10:07AM 42.4500 -71.2000 105° East 243 280 7,400 -1,440 Descending KA90
10:08AM 42.4167 -71.1167 118° Southeast 235 270 5,900 -1,200 Descending KA90
10:09AM 42.3667 -71.1167 180° South 241 277 4,900 -1,080 Descending KA90
10:10AM 42.3328 -71.1567 221° Southwest 200 230 4,100 -1,080 Descending Boston Center
10:11AM 42.2786 -71.1606 183° South 214 246 3,100 -720 Descending Boston Center
10:12AM 42.2633 -71.1075 111° Southeast 158 182 2,700 -600 Descending Boston Center
10:12AM 42.2667 -71.0833 79° East 174 200 2,400 -900 Descending KA90
10:13AM 42.3000 -71.0500 36° Northeast 146 168 1,600 -900 Descending KA90
10:14AM 42.3333 -71.0333 20° North 128 147 600 3,420 Descending KA90
10:16AM 42.3744 -70.9842 41° Northeast 117 135 11,000 6,360 Climbing Boston Center